sensor_id;sensor_type;location;lat;lon;timestamp;P1;durP1;ratioP1;P2;durP2;ratioP2
1204;SDS011;592;48.764;9.174;2023-05-10T00:00:59;2.87;;;1.17;;
1204;SDS011;592;48.764;9.174;2023-05-10T00:03:27;3.33;;;1.47;;
1204;SDS011;592;48.764;9.174;2023-05-10T00:05:54;3.47;;;1.80;;
1204;SDS011;592;48.764;9.174;2023-05-10T00:08:20;4.00;;;1.57;;
1204;SDS011;592;48.764;9.174;2023-05-10T00:10:47;3.50;;;1.47;;
1204;SDS011;592;48.764;9.174;2023-05-10T00:13:14;4.00;;;1.57;;
1204;SDS011;592;48.764;9.174;2023-05-10T00:15:41;3.70;;;1.10;;
1204;SDS011;592;48.764;9.174;2023-05-10T00:18:07;2.60;;;1.10;;
1204;SDS011;592;48.764;9.174;2023-05-10T00:20:35;3.10;;;1.20;;
1204;SDS011;592;48.764;9.174;2023-05-10T00:23:02;3.63;;;1.00;;
1204;SDS011;592;48.764;9.174;2023-05-10T00:25:29;2.70;;;1.00;;
1204;SDS011;592;48.764;9.174;2023-05-10T00:27:55;2.70;;;1.00;;
1204;SDS011;592;48.764;9.174;2023-05-10T00:30:22;2.40;;;0.90;;
1204;SDS011;592;48.764;9.174;2023-05-10T00:32:49;3.80;;;0.90;;
1204;SDS011;592;48.764;9.174;2023-05-10T00:35:16;2.40;;;0.80;;
1204;SDS011;592;48.764;9.174;2023-05-10T00:37:44;2.60;;;0.90;;
1204;SDS011;592;48.764;9.174;2023-05-10T00:40:11;2.57;;;0.90;;
1204;SDS011;592;48.764;9.174;2023-05-10T00:42:38;2.57;;;0.80;;
1204;SDS011;592;48.764;9.174;2023-05-10T00:45:05;2.60;;;0.90;;
1204;SDS011;592;48.764;9.174;2023-05-10T00:47:33;3.27;;;0.80;;
1204;SDS011;592;48.764;9.174;2023-05-10T00:50:00;2.10;;;0.60;;
1204;SDS011;592;48.764;9.174;2023-05-10T00:52:28;2.37;;;0.70;;
1204;SDS011;592;48.764;9.174;2023-05-10T00:54:56;2.33;;;0.80;;
1204;SDS011;592;48.764;9.174;2023-05-10T00:57:23;3.43;;;0.90;;
1204;SDS011;592;48.764;9.174;2023-05-10T00:59:50;2.50;;;0.70;;
1204;SDS011;592;48.764;9.174;2023-05-10T01:02:17;2.30;;;0.70;;
1204;SDS011;592;48.764;9.174;2023-05-10T01:04:44;2.50;;;0.80;;
1204;SDS011;592;48.764;9.174;2023-05-10T01:07:11;2.63;;;0.90;;
1204;SDS011;592;48.764;9.174;2023-05-10T01:09:37;2.40;;;0.70;;
1204;SDS011;592;48.764;9.174;2023-05-10T01:12:06;2.30;;;0.77;;
1204;SDS011;592;48.764;9.174;2023-05-10T01:14:33;3.60;;;0.70;;
1204;SDS011;592;48.764;9.174;2023-05-10T01:17:01;2.63;;;0.70;;
1204;SDS011;592;48.764;9.174;2023-05-10T01:19:29;3.63;;;1.03;;
1204;SDS011;592;48.764;9.174;2023-05-10T01:22:01;3.13;;;0.80;;
1204;SDS011;592;48.764;9.174;2023-05-10T01:27:51;2.90;;;0.77;;
1204;SDS011;592;48.764;9.174;2023-05-10T01:33:51;3.43;;;0.80;;
1204;SDS011;592;48.764;9.174;2023-05-10T01:36:23;2.50;;;0.60;;
1204;SDS011;592;48.764;9.174;2023-05-10T01:38:57;3.50;;;0.80;;
1204;SDS011;592;48.764;9.174;2023-05-10T01:41:30;2.20;;;0.70;;
1204;SDS011;592;48.764;9.174;2023-05-10T01:44:05;3.40;;;0.70;;
1204;SDS011;592;48.764;9.174;2023-05-10T01:46:38;3.57;;;0.90;;
1204;SDS011;592;48.764;9.174;2023-05-10T01:49:07;2.30;;;0.70;;
1204;SDS011;592;48.764;9.174;2023-05-10T01:51:36;2.30;;;0.73;;
1204;SDS011;592;48.764;9.174;2023-05-10T01:54:06;3.23;;;0.70;;
1204;SDS011;592;48.764;9.174;2023-05-10T01:56:35;2.77;;;0.90;;
1204;SDS011;592;48.764;9.174;2023-05-10T01:59:06;2.97;;;0.70;;
1204;SDS011;592;48.764;9.174;2023-05-10T02:01:39;2.50;;;0.70;;
1204;SDS011;592;48.764;9.174;2023-05-10T02:04:07;2.53;;;0.80;;
1204;SDS011;592;48.764;9.174;2023-05-10T02:06:37;2.40;;;0.77;;
1204;SDS011;592;48.764;9.174;2023-05-10T02:09:05;4.10;;;0.97;;
1204;SDS011;592;48.764;9.174;2023-05-10T02:11:33;4.10;;;0.70;;
1204;SDS011;592;48.764;9.174;2023-05-10T02:14:00;2.20;;;0.70;;
1204;SDS011;592;48.764;9.174;2023-05-10T02:16:28;4.00;;;0.80;;
1204;SDS011;592;48.764;9.174;2023-05-10T02:18:55;2.33;;;0.70;;
1204;SDS011;592;48.764;9.174;2023-05-10T02:21:26;2.40;;;0.80;;
1204;SDS011;592;48.764;9.174;2023-05-10T02:23:54;2.37;;;0.80;;
1204;SDS011;592;48.764;9.174;2023-05-10T02:26:22;2.50;;;0.80;;
1204;SDS011;592;48.764;9.174;2023-05-10T02:28:51;3.37;;;0.80;;
1204;SDS011;592;48.764;9.174;2023-05-10T02:31:19;3.53;;;0.90;;
1204;SDS011;592;48.764;9.174;2023-05-10T02:33:47;2.30;;;0.77;;
1204;SDS011;592;48.764;9.174;2023-05-10T02:36:14;2.80;;;0.80;;
1204;SDS011;592;48.764;9.174;2023-05-10T02:38:43;2.30;;;0.80;;
1204;SDS011;592;48.764;9.174;2023-05-10T02:41:11;2.30;;;0.80;;
1204;SDS011;592;48.764;9.174;2023-05-10T02:43:39;2.63;;;0.90;;
1204;SDS011;592;48.764;9.174;2023-05-10T02:46:06;2.37;;;0.77;;
1204;SDS011;592;48.764;9.174;2023-05-10T02:48:33;3.20;;;0.83;;
1204;SDS011;592;48.764;9.174;2023-05-10T02:51:02;2.40;;;0.80;;
1204;SDS011;592;48.764;9.174;2023-05-10T02:53:33;2.40;;;0.87;;
1204;SDS011;592;48.764;9.174;2023-05-10T02:56:04;2.43;;;0.80;;
1204;SDS011;592;48.764;9.174;2023-05-10T02:58:33;2.70;;;0.80;;
1204;SDS011;592;48.764;9.174;2023-05-10T03:01:00;2.43;;;0.77;;
1204;SDS011;592;48.764;9.174;2023-05-10T03:03:27;2.40;;;0.93;;
1204;SDS011;592;48.764;9.174;2023-05-10T03:05:54;2.40;;;0.77;;
1204;SDS011;592;48.764;9.174;2023-05-10T03:08:21;2.30;;;0.83;;
1204;SDS011;592;48.764;9.174;2023-05-10T03:10:51;4.40;;;0.90;;
1204;SDS011;592;48.764;9.174;2023-05-10T03:13:24;4.00;;;0.80;;
1204;SDS011;592;48.764;9.174;2023-05-10T03:16:02;2.20;;;0.77;;
1204;SDS011;592;48.764;9.174;2023-05-10T03:18:37;3.20;;;0.80;;
1204;SDS011;592;48.764;9.174;2023-05-10T03:21:08;4.80;;;1.00;;
1204;SDS011;592;48.764;9.174;2023-05-10T03:23:40;2.30;;;0.80;;
1204;SDS011;592;48.764;9.174;2023-05-10T03:26:09;2.77;;;1.10;;
1204;SDS011;592;48.764;9.174;2023-05-10T03:28:39;2.87;;;0.80;;
1204;SDS011;592;48.764;9.174;2023-05-10T03:31:07;3.00;;;0.93;;
1204;SDS011;592;48.764;9.174;2023-05-10T03:33:34;2.33;;;0.80;;
1204;SDS011;592;48.764;9.174;2023-05-10T03:36:01;2.90;;;1.10;;
1204;SDS011;592;48.764;9.174;2023-05-10T03:38:27;2.30;;;0.80;;
1204;SDS011;592;48.764;9.174;2023-05-10T03:40:54;2.80;;;1.37;;
1204;SDS011;592;48.764;9.174;2023-05-10T03:43:21;3.20;;;1.07;;
1204;SDS011;592;48.764;9.174;2023-05-10T03:45:49;2.80;;;1.10;;
1204;SDS011;592;48.764;9.174;2023-05-10T03:48:15;3.00;;;1.17;;
1204;SDS011;592;48.764;9.174;2023-05-10T03:50:42;4.53;;;1.40;;
1204;SDS011;592;48.764;9.174;2023-05-10T03:53:09;3.67;;;1.40;;
1204;SDS011;592;48.764;9.174;2023-05-10T03:55:35;7.03;;;1.80;;
1204;SDS011;592;48.764;9.174;2023-05-10T03:58:02;4.37;;;1.30;;
1204;SDS011;592;48.764;9.174;2023-05-10T04:00:29;2.87;;;1.30;;
1204;SDS011;592;48.764;9.174;2023-05-10T04:02:57;4.10;;;1.70;;
1204;SDS011;592;48.764;9.174;2023-05-10T04:05:24;3.40;;;1.40;;
1204;SDS011;592;48.764;9.174;2023-05-10T04:07:51;3.50;;;1.57;;
1204;SDS011;592;48.764;9.174;2023-05-10T04:10:17;2.90;;;1.30;;
1204;SDS011;592;48.764;9.174;2023-05-10T04:12:46;3.07;;;1.40;;
1204;SDS011;592;48.764;9.174;2023-05-10T04:15:12;4.23;;;1.37;;
1204;SDS011;592;48.764;9.174;2023-05-10T04:17:39;3.70;;;1.27;;
1204;SDS011;592;48.764;9.174;2023-05-10T04:20:08;3.90;;;1.30;;
1204;SDS011;592;48.764;9.174;2023-05-10T04:22:35;3.00;;;1.13;;
1204;SDS011;592;48.764;9.174;2023-05-10T04:25:02;2.97;;;1.43;;
1204;SDS011;592;48.764;9.174;2023-05-10T04:27:30;2.90;;;1.43;;
1204;SDS011;592;48.764;9.174;2023-05-10T04:29:57;4.83;;;1.60;;
1204;SDS011;592;48.764;9.174;2023-05-10T04:32:23;3.37;;;1.43;;
1204;SDS011;592;48.764;9.174;2023-05-10T04:34:50;3.73;;;1.50;;
1204;SDS011;592;48.764;9.174;2023-05-10T04:37:19;3.00;;;1.30;;
1204;SDS011;592;48.764;9.174;2023-05-10T04:39:46;3.00;;;1.30;;
1204;SDS011;592;48.764;9.174;2023-05-10T04:42:13;4.23;;;1.40;;
1204;SDS011;592;48.764;9.174;2023-05-10T04:44:40;2.73;;;1.30;;
1204;SDS011;592;48.764;9.174;2023-05-10T04:47:07;3.43;;;1.37;;
1204;SDS011;592;48.764;9.174;2023-05-10T04:49:34;3.20;;;1.40;;
1204;SDS011;592;48.764;9.174;2023-05-10T04:52:00;4.67;;;1.23;;
1204;SDS011;592;48.764;9.174;2023-05-10T04:54:28;2.90;;;1.30;;
1204;SDS011;592;48.764;9.174;2023-05-10T04:56:55;4.57;;;1.70;;
1204;SDS011;592;48.764;9.174;2023-05-10T04:59:22;4.60;;;1.57;;
1204;SDS011;592;48.764;9.174;2023-05-10T05:01:48;2.90;;;1.27;;
1204;SDS011;592;48.764;9.174;2023-05-10T05:04:15;3.10;;;1.40;;
1204;SDS011;592;48.764;9.174;2023-05-10T05:06:42;4.40;;;1.33;;
1204;SDS011;592;48.764;9.174;2023-05-10T05:09:08;5.23;;;1.30;;
1204;SDS011;592;48.764;9.174;2023-05-10T05:11:37;2.80;;;1.30;;
1204;SDS011;592;48.764;9.174;2023-05-10T05:14:05;3.50;;;1.30;;
1204;SDS011;592;48.764;9.174;2023-05-10T05:16:33;3.40;;;1.70;;
1204;SDS011;592;48.764;9.174;2023-05-10T05:19:01;3.07;;;1.30;;
1204;SDS011;592;48.764;9.174;2023-05-10T05:21:28;3.83;;;1.67;;
1204;SDS011;592;48.764;9.174;2023-05-10T05:23:54;3.00;;;1.40;;
1204;SDS011;592;48.764;9.174;2023-05-10T05:26:21;4.73;;;1.90;;
1204;SDS011;592;48.764;9.174;2023-05-10T05:28:49;4.17;;;1.50;;
1204;SDS011;592;48.764;9.174;2023-05-10T05:31:18;3.00;;;1.40;;
1204;SDS011;592;48.764;9.174;2023-05-10T05:33:45;3.97;;;1.13;;
1204;SDS011;592;48.764;9.174;2023-05-10T05:36:12;3.10;;;1.53;;
1204;SDS011;592;48.764;9.174;2023-05-10T05:38:38;6.80;;;1.70;;
1204;SDS011;592;48.764;9.174;2023-05-10T05:41:05;3.10;;;1.60;;
1204;SDS011;592;48.764;9.174;2023-05-10T05:43:32;4.40;;;2.00;;
1204;SDS011;592;48.764;9.174;2023-05-10T05:46:02;4.07;;;1.80;;
1204;SDS011;592;48.764;9.174;2023-05-10T05:48:29;3.47;;;1.73;;
1204;SDS011;592;48.764;9.174;2023-05-10T05:50:56;3.40;;;1.47;;
1204;SDS011;592;48.764;9.174;2023-05-10T05:53:23;3.13;;;1.60;;
1204;SDS011;592;48.764;9.174;2023-05-10T05:55:52;4.50;;;1.37;;
1204;SDS011;592;48.764;9.174;2023-05-10T05:58:20;4.73;;;1.80;;
1204;SDS011;592;48.764;9.174;2023-05-10T06:00:47;3.27;;;1.67;;
1204;SDS011;592;48.764;9.174;2023-05-10T06:03:15;3.40;;;1.60;;
1204;SDS011;592;48.764;9.174;2023-05-10T06:05:42;3.87;;;1.50;;
1204;SDS011;592;48.764;9.174;2023-05-10T06:08:09;4.33;;;1.77;;
1204;SDS011;592;48.764;9.174;2023-05-10T06:10:36;5.23;;;2.50;;
1204;SDS011;592;48.764;9.174;2023-05-10T06:13:02;6.20;;;3.00;;
1204;SDS011;592;48.764;9.174;2023-05-10T06:15:29;5.13;;;1.83;;
1204;SDS011;592;48.764;9.174;2023-05-10T06:17:57;4.87;;;2.30;;
1204;SDS011;592;48.764;9.174;2023-05-10T06:20:25;3.73;;;1.93;;
1204;SDS011;592;48.764;9.174;2023-05-10T06:22:52;4.13;;;2.20;;
1204;SDS011;592;48.764;9.174;2023-05-10T06:25:19;6.30;;;1.93;;
1204;SDS011;592;48.764;9.174;2023-05-10T06:27:46;7.33;;;2.20;;
1204;SDS011;592;48.764;9.174;2023-05-10T06:30:13;3.83;;;1.90;;
1204;SDS011;592;48.764;9.174;2023-05-10T06:32:40;3.60;;;1.93;;
1204;SDS011;592;48.764;9.174;2023-05-10T06:35:08;9.20;;;2.20;;
1204;SDS011;592;48.764;9.174;2023-05-10T06:37:37;3.90;;;1.93;;
1204;SDS011;592;48.764;9.174;2023-05-10T06:40:04;4.50;;;1.83;;
1204;SDS011;592;48.764;9.174;2023-05-10T06:42:32;5.00;;;2.43;;
1204;SDS011;592;48.764;9.174;2023-05-10T06:45:01;3.80;;;2.03;;
1204;SDS011;592;48.764;9.174;2023-05-10T06:47:29;4.83;;;1.90;;
1204;SDS011;592;48.764;9.174;2023-05-10T06:49:55;4.07;;;1.83;;
1204;SDS011;592;48.764;9.174;2023-05-10T06:52:22;6.50;;;2.50;;
1204;SDS011;592;48.764;9.174;2023-05-10T06:54:56;5.63;;;2.17;;
1204;SDS011;592;48.764;9.174;2023-05-10T06:57:37;4.70;;;2.13;;
1204;SDS011;592;48.764;9.174;2023-05-10T07:00:04;3.80;;;2.37;;
1204;SDS011;592;48.764;9.174;2023-05-10T07:02:32;4.30;;;1.70;;
1204;SDS011;592;48.764;9.174;2023-05-10T07:04:59;5.43;;;1.97;;
1204;SDS011;592;48.764;9.174;2023-05-10T07:07:25;3.60;;;1.80;;
1204;SDS011;592;48.764;9.174;2023-05-10T07:09:52;4.27;;;2.10;;
1204;SDS011;592;48.764;9.174;2023-05-10T07:12:20;5.47;;;2.13;;
1204;SDS011;592;48.764;9.174;2023-05-10T07:14:47;8.53;;;1.90;;
1204;SDS011;592;48.764;9.174;2023-05-10T07:17:13;5.50;;;2.73;;
1204;SDS011;592;48.764;9.174;2023-05-10T07:19:40;4.10;;;2.10;;
1204;SDS011;592;48.764;9.174;2023-05-10T07:22:07;4.80;;;2.30;;
1204;SDS011;592;48.764;9.174;2023-05-10T07:24:34;3.70;;;1.77;;
1204;SDS011;592;48.764;9.174;2023-05-10T07:27:00;5.80;;;2.60;;
1204;SDS011;592;48.764;9.174;2023-05-10T07:29:28;4.40;;;1.80;;
1204;SDS011;592;48.764;9.174;2023-05-10T07:31:55;4.23;;;2.03;;
1204;SDS011;592;48.764;9.174;2023-05-10T07:34:22;5.97;;;2.00;;
1204;SDS011;592;48.764;9.174;2023-05-10T07:36:48;3.80;;;2.20;;
1204;SDS011;592;48.764;9.174;2023-05-10T07:39:15;3.77;;;1.60;;
1204;SDS011;592;48.764;9.174;2023-05-10T07:41:42;3.53;;;1.80;;
1204;SDS011;592;48.764;9.174;2023-05-10T07:44:09;6.93;;;2.20;;
1204;SDS011;592;48.764;9.174;2023-05-10T07:46:37;4.70;;;2.60;;
1204;SDS011;592;48.764;9.174;2023-05-10T07:49:04;4.20;;;1.90;;
1204;SDS011;592;48.764;9.174;2023-05-10T07:51:31;3.10;;;1.60;;
1204;SDS011;592;48.764;9.174;2023-05-10T07:53:57;6.67;;;2.00;;
1204;SDS011;592;48.764;9.174;2023-05-10T07:56:25;4.30;;;2.20;;
1204;SDS011;592;48.764;9.174;2023-05-10T07:58:54;5.20;;;1.77;;
1204;SDS011;592;48.764;9.174;2023-05-10T08:01:22;4.20;;;1.70;;
1204;SDS011;592;48.764;9.174;2023-05-10T08:03:50;3.37;;;1.57;;
1204;SDS011;592;48.764;9.174;2023-05-10T08:06:18;3.97;;;1.80;;
1204;SDS011;592;48.764;9.174;2023-05-10T08:08:45;8.70;;;2.00;;
1204;SDS011;592;48.764;9.174;2023-05-10T08:11:14;3.07;;;1.47;;
1204;SDS011;592;48.764;9.174;2023-05-10T08:13:41;3.20;;;1.57;;
1204;SDS011;592;48.764;9.174;2023-05-10T08:16:07;4.80;;;1.47;;
1204;SDS011;592;48.764;9.174;2023-05-10T08:18:34;6.60;;;1.90;;
1204;SDS011;592;48.764;9.174;2023-05-10T08:21:02;3.23;;;1.30;;
1204;SDS011;592;48.764;9.174;2023-05-10T08:23:29;2.93;;;1.10;;
1204;SDS011;592;48.764;9.174;2023-05-10T08:25:55;3.10;;;1.30;;
1204;SDS011;592;48.764;9.174;2023-05-10T08:28:22;6.33;;;1.50;;
1204;SDS011;592;48.764;9.174;2023-05-10T08:30:49;3.10;;;1.40;;
1204;SDS011;592;48.764;9.174;2023-05-10T08:33:17;4.00;;;1.77;;
1204;SDS011;592;48.764;9.174;2023-05-10T08:35:43;3.53;;;1.20;;
1204;SDS011;592;48.764;9.174;2023-05-10T08:38:11;3.70;;;2.00;;
1204;SDS011;592;48.764;9.174;2023-05-10T08:40:38;2.70;;;1.10;;
1204;SDS011;592;48.764;9.174;2023-05-10T08:43:08;4.20;;;1.20;;
1204;SDS011;592;48.764;9.174;2023-05-10T08:45:37;4.10;;;1.40;;
1204;SDS011;592;48.764;9.174;2023-05-10T08:48:05;4.23;;;1.40;;
1204;SDS011;592;48.764;9.174;2023-05-10T08:50:33;3.57;;;1.20;;
1204;SDS011;592;48.764;9.174;2023-05-10T08:53:03;9.73;;;2.33;;
1204;SDS011;592;48.764;9.174;2023-05-10T08:55:33;4.40;;;0.90;;
1204;SDS011;592;48.764;9.174;2023-05-10T08:58:01;5.20;;;1.10;;
1204;SDS011;592;48.764;9.174;2023-05-10T09:00:28;4.03;;;1.33;;
1204;SDS011;592;48.764;9.174;2023-05-10T09:02:55;3.80;;;1.20;;
1204;SDS011;592;48.764;9.174;2023-05-10T09:05:23;3.40;;;1.40;;
1204;SDS011;592;48.764;9.174;2023-05-10T09:07:50;4.83;;;1.30;;
1204;SDS011;592;48.764;9.174;2023-05-10T09:10:16;2.77;;;1.17;;
1204;SDS011;592;48.764;9.174;2023-05-10T09:12:45;5.07;;;1.33;;
1204;SDS011;592;48.764;9.174;2023-05-10T09:15:13;5.93;;;1.20;;
1204;SDS011;592;48.764;9.174;2023-05-10T09:17:44;3.00;;;1.30;;
1204;SDS011;592;48.764;9.174;2023-05-10T09:20:11;4.73;;;1.20;;
1204;SDS011;592;48.764;9.174;2023-05-10T09:22:38;6.50;;;1.60;;
1204;SDS011;592;48.764;9.174;2023-05-10T09:25:05;3.97;;;1.20;;
1204;SDS011;592;48.764;9.174;2023-05-10T09:27:33;3.27;;;1.10;;
1204;SDS011;592;48.764;9.174;2023-05-10T09:30:01;3.53;;;1.10;;
1204;SDS011;592;48.764;9.174;2023-05-10T09:32:38;3.73;;;0.90;;
1204;SDS011;592;48.764;9.174;2023-05-10T09:35:06;3.53;;;1.27;;
1204;SDS011;592;48.764;9.174;2023-05-10T09:37:33;2.87;;;1.10;;
1204;SDS011;592;48.764;9.174;2023-05-10T09:40:00;2.93;;;1.10;;
1204;SDS011;592;48.764;9.174;2023-05-10T09:42:31;3.17;;;1.20;;
1204;SDS011;592;48.764;9.174;2023-05-10T09:44:59;3.40;;;1.30;;
1204;SDS011;592;48.764;9.174;2023-05-10T09:47:29;3.37;;;1.10;;
1204;SDS011;592;48.764;9.174;2023-05-10T09:49:57;3.80;;;1.70;;
1204;SDS011;592;48.764;9.174;2023-05-10T09:52:28;7.27;;;2.10;;
1204;SDS011;592;48.764;9.174;2023-05-10T09:54:55;4.47;;;1.30;;
1204;SDS011;592;48.764;9.174;2023-05-10T09:57:33;3.63;;;1.10;;
1204;SDS011;592;48.764;9.174;2023-05-10T10:00:03;3.90;;;1.00;;
1204;SDS011;592;48.764;9.174;2023-05-10T10:02:34;4.70;;;1.00;;
1204;SDS011;592;48.764;9.174;2023-05-10T10:05:01;5.13;;;1.80;;
1204;SDS011;592;48.764;9.174;2023-05-10T10:07:28;6.10;;;1.73;;
1204;SDS011;592;48.764;9.174;2023-05-10T10:09:55;4.00;;;1.17;;
1204;SDS011;592;48.764;9.174;2023-05-10T10:12:22;2.80;;;1.23;;
1204;SDS011;592;48.764;9.174;2023-05-10T10:14:49;3.30;;;1.63;;
1204;SDS011;592;48.764;9.174;2023-05-10T10:17:18;4.27;;;1.20;;
1204;SDS011;592;48.764;9.174;2023-05-10T10:19:46;2.90;;;1.30;;
1204;SDS011;592;48.764;9.174;2023-05-10T10:22:15;7.63;;;3.30;;
1204;SDS011;592;48.764;9.174;2023-05-10T10:24:42;5.43;;;1.80;;
1204;SDS011;592;48.764;9.174;2023-05-10T10:27:15;3.27;;;1.40;;
1204;SDS011;592;48.764;9.174;2023-05-10T10:29:48;6.13;;;1.20;;
1204;SDS011;592;48.764;9.174;2023-05-10T10:32:25;3.40;;;1.23;;
1204;SDS011;592;48.764;9.174;2023-05-10T10:35:00;3.63;;;1.33;;
1204;SDS011;592;48.764;9.174;2023-05-10T10:37:40;3.63;;;1.30;;
1204;SDS011;592;48.764;9.174;2023-05-10T10:40:26;6.83;;;1.10;;
1204;SDS011;592;48.764;9.174;2023-05-10T10:42:57;3.20;;;1.30;;
1204;SDS011;592;48.764;9.174;2023-05-10T10:45:44;5.53;;;1.10;;
1204;SDS011;592;48.764;9.174;2023-05-10T10:48:35;3.97;;;1.20;;
1204;SDS011;592;48.764;9.174;2023-05-10T10:51:02;4.50;;;1.93;;
1204;SDS011;592;48.764;9.174;2023-05-10T10:53:29;8.53;;;1.30;;
1204;SDS011;592;48.764;9.174;2023-05-10T10:58:39;4.47;;;1.13;;
1204;SDS011;592;48.764;9.174;2023-05-10T11:01:11;7.50;;;1.20;;
1204;SDS011;592;48.764;9.174;2023-05-10T11:03:54;3.38;;;1.00;;
1204;SDS011;592;48.764;9.174;2023-05-10T11:06:50;2.93;;;1.00;;
1204;SDS011;592;48.764;9.174;2023-05-10T11:09:43;4.50;;;1.40;;
1204;SDS011;592;48.764;9.174;2023-05-10T11:12:11;5.00;;;1.00;;
1204;SDS011;592;48.764;9.174;2023-05-10T11:14:38;3.57;;;1.10;;
1204;SDS011;592;48.764;9.174;2023-05-10T11:20:10;12.43;;;1.30;;
1204;SDS011;592;48.764;9.174;2023-05-10T11:22:52;3.77;;;1.00;;
1204;SDS011;592;48.764;9.174;2023-05-10T11:25:26;4.20;;;1.20;;
1204;SDS011;592;48.764;9.174;2023-05-10T11:27:53;2.80;;;0.90;;
1204;SDS011;592;48.764;9.174;2023-05-10T11:30:20;8.43;;;1.70;;
1204;SDS011;592;48.764;9.174;2023-05-10T11:32:52;7.07;;;1.20;;
1204;SDS011;592;48.764;9.174;2023-05-10T11:35:23;3.23;;;1.10;;
1204;SDS011;592;48.764;9.174;2023-05-10T11:37:54;3.63;;;1.20;;
1204;SDS011;592;48.764;9.174;2023-05-10T11:40:24;4.37;;;1.30;;
1204;SDS011;592;48.764;9.174;2023-05-10T11:45:37;5.40;;;1.30;;
1204;SDS011;592;48.764;9.174;2023-05-10T11:48:07;5.03;;;1.30;;
1204;SDS011;592;48.764;9.174;2023-05-10T11:50:43;5.07;;;1.13;;
1204;SDS011;592;48.764;9.174;2023-05-10T11:53:10;4.20;;;1.15;;
1204;SDS011;592;48.764;9.174;2023-05-10T11:55:39;3.00;;;1.20;;
1204;SDS011;592;48.764;9.174;2023-05-10T11:58:05;5.17;;;1.20;;
1204;SDS011;592;48.764;9.174;2023-05-10T12:00:32;7.60;;;2.00;;
1204;SDS011;592;48.764;9.174;2023-05-10T12:03:00;4.13;;;1.43;;
1204;SDS011;592;48.764;9.174;2023-05-10T12:05:28;6.23;;;1.30;;
1204;SDS011;592;48.764;9.174;2023-05-10T12:08:12;5.43;;;1.50;;
1204;SDS011;592;48.764;9.174;2023-05-10T12:10:40;3.57;;;1.10;;
1204;SDS011;592;48.764;9.174;2023-05-10T12:13:10;5.77;;;1.50;;
1204;SDS011;592;48.764;9.174;2023-05-10T12:15:38;7.20;;;1.47;;
1204;SDS011;592;48.764;9.174;2023-05-10T12:18:07;4.07;;;1.50;;
1204;SDS011;592;48.764;9.174;2023-05-10T12:20:39;4.67;;;1.60;;
1204;SDS011;592;48.764;9.174;2023-05-10T12:23:08;6.50;;;1.93;;
1204;SDS011;592;48.764;9.174;2023-05-10T12:25:37;4.37;;;1.60;;
1204;SDS011;592;48.764;9.174;2023-05-10T12:28:05;7.63;;;1.90;;
1204;SDS011;592;48.764;9.174;2023-05-10T12:30:33;3.43;;;1.23;;
1204;SDS011;592;48.764;9.174;2023-05-10T12:33:02;5.13;;;1.80;;
1204;SDS011;592;48.764;9.174;2023-05-10T12:35:33;3.73;;;1.40;;
1204;SDS011;592;48.764;9.174;2023-05-10T12:38:23;4.17;;;1.40;;
1204;SDS011;592;48.764;9.174;2023-05-10T12:41:04;3.53;;;1.57;;
1204;SDS011;592;48.764;9.174;2023-05-10T12:43:37;4.00;;;1.53;;
1204;SDS011;592;48.764;9.174;2023-05-10T12:46:05;3.93;;;1.70;;
1204;SDS011;592;48.764;9.174;2023-05-10T12:48:33;5.77;;;1.90;;
1204;SDS011;592;48.764;9.174;2023-05-10T12:51:00;5.77;;;1.83;;
1204;SDS011;592;48.764;9.174;2023-05-10T12:53:27;5.93;;;1.60;;
1204;SDS011;592;48.764;9.174;2023-05-10T12:55:54;4.20;;;1.70;;
1204;SDS011;592;48.764;9.174;2023-05-10T12:58:22;4.40;;;1.70;;
1204;SDS011;592;48.764;9.174;2023-05-10T13:00:49;3.30;;;1.40;;
1204;SDS011;592;48.764;9.174;2023-05-10T13:03:17;3.73;;;1.60;;
1204;SDS011;592;48.764;9.174;2023-05-10T13:05:45;11.60;;;2.00;;
1204;SDS011;592;48.764;9.174;2023-05-10T13:08:11;5.07;;;1.83;;
1204;SDS011;592;48.764;9.174;2023-05-10T13:10:38;6.73;;;1.60;;
1204;SDS011;592;48.764;9.174;2023-05-10T13:13:05;5.10;;;1.73;;
1204;SDS011;592;48.764;9.174;2023-05-10T13:15:34;5.60;;;1.80;;
1204;SDS011;592;48.764;9.174;2023-05-10T13:18:00;7.47;;;1.70;;
1204;SDS011;592;48.764;9.174;2023-05-10T13:20:30;4.87;;;1.57;;
1204;SDS011;592;48.764;9.174;2023-05-10T13:22:57;3.70;;;1.40;;
1204;SDS011;592;48.764;9.174;2023-05-10T13:25:26;5.33;;;1.97;;
1204;SDS011;592;48.764;9.174;2023-05-10T13:28:10;5.50;;;1.73;;
1204;SDS011;592;48.764;9.174;2023-05-10T13:30:39;4.57;;;1.90;;
1204;SDS011;592;48.764;9.174;2023-05-10T13:33:11;3.80;;;1.60;;
1204;SDS011;592;48.764;9.174;2023-05-10T13:35:38;4.30;;;1.23;;
1204;SDS011;592;48.764;9.174;2023-05-10T13:38:05;3.37;;;1.40;;
1204;SDS011;592;48.764;9.174;2023-05-10T13:40:32;4.10;;;1.80;;
1204;SDS011;592;48.764;9.174;2023-05-10T13:43:00;9.00;;;2.00;;
1204;SDS011;592;48.764;9.174;2023-05-10T13:45:27;3.90;;;1.43;;
1204;SDS011;592;48.764;9.174;2023-05-10T13:47:55;3.67;;;1.63;;
1204;SDS011;592;48.764;9.174;2023-05-10T13:50:22;3.53;;;1.70;;
1204;SDS011;592;48.764;9.174;2023-05-10T13:52:48;4.40;;;1.40;;
1204;SDS011;592;48.764;9.174;2023-05-10T13:55:15;4.23;;;1.30;;
1204;SDS011;592;48.764;9.174;2023-05-10T13:57:43;3.60;;;1.60;;
1204;SDS011;592;48.764;9.174;2023-05-10T14:00:10;4.60;;;1.50;;
1204;SDS011;592;48.764;9.174;2023-05-10T14:02:38;6.07;;;1.80;;
1204;SDS011;592;48.764;9.174;2023-05-10T14:05:09;3.67;;;1.47;;
1204;SDS011;592;48.764;9.174;2023-05-10T14:07:48;5.20;;;1.60;;
1204;SDS011;592;48.764;9.174;2023-05-10T14:10:16;3.40;;;1.40;;
1204;SDS011;592;48.764;9.174;2023-05-10T14:12:43;4.47;;;1.40;;
1204;SDS011;592;48.764;9.174;2023-05-10T14:15:10;3.00;;;1.23;;
1204;SDS011;592;48.764;9.174;2023-05-10T14:17:36;4.10;;;1.37;;
1204;SDS011;592;48.764;9.174;2023-05-10T14:20:04;3.63;;;1.20;;
1204;SDS011;592;48.764;9.174;2023-05-10T14:22:32;3.40;;;1.33;;
1204;SDS011;592;48.764;9.174;2023-05-10T14:24:59;5.40;;;1.77;;
1204;SDS011;592;48.764;9.174;2023-05-10T14:27:26;4.50;;;1.40;;
1204;SDS011;592;48.764;9.174;2023-05-10T14:29:53;4.20;;;1.20;;
1204;SDS011;592;48.764;9.174;2023-05-10T14:32:19;4.20;;;1.97;;
1204;SDS011;592;48.764;9.174;2023-05-10T14:34:46;3.50;;;1.33;;
1204;SDS011;592;48.764;9.174;2023-05-10T14:37:13;4.70;;;1.70;;
1204;SDS011;592;48.764;9.174;2023-05-10T14:39:41;4.40;;;1.60;;
1204;SDS011;592;48.764;9.174;2023-05-10T14:42:08;4.80;;;1.40;;
1204;SDS011;592;48.764;9.174;2023-05-10T14:44:35;4.30;;;1.30;;
1204;SDS011;592;48.764;9.174;2023-05-10T14:47:02;4.70;;;1.57;;
1204;SDS011;592;48.764;9.174;2023-05-10T14:49:29;3.10;;;1.27;;
1204;SDS011;592;48.764;9.174;2023-05-10T14:51:55;3.07;;;1.40;;
1204;SDS011;592;48.764;9.174;2023-05-10T14:54:22;3.77;;;1.47;;
1204;SDS011;592;48.764;9.174;2023-05-10T14:56:50;5.03;;;2.33;;
1204;SDS011;592;48.764;9.174;2023-05-10T14:59:20;4.63;;;1.70;;
1204;SDS011;592;48.764;9.174;2023-05-10T15:01:46;5.73;;;2.23;;
1204;SDS011;592;48.764;9.174;2023-05-10T15:04:13;3.37;;;1.57;;
1204;SDS011;592;48.764;9.174;2023-05-10T15:06:41;3.93;;;1.27;;
1204;SDS011;592;48.764;9.174;2023-05-10T15:09:08;3.30;;;1.40;;
1204;SDS011;592;48.764;9.174;2023-05-10T15:11:35;3.10;;;1.30;;
1204;SDS011;592;48.764;9.174;2023-05-10T15:14:03;5.03;;;1.87;;
1204;SDS011;592;48.764;9.174;2023-05-10T15:16:30;5.00;;;2.10;;
1204;SDS011;592;48.764;9.174;2023-05-10T15:18:56;4.10;;;1.50;;
1204;SDS011;592;48.764;9.174;2023-05-10T15:21:23;3.30;;;1.10;;
1204;SDS011;592;48.764;9.174;2023-05-10T15:23:50;3.90;;;1.40;;
1204;SDS011;592;48.764;9.174;2023-05-10T15:26:23;3.80;;;1.40;;
1204;SDS011;592;48.764;9.174;2023-05-10T15:28:51;3.57;;;1.40;;
1204;SDS011;592;48.764;9.174;2023-05-10T15:31:27;4.80;;;1.60;;
1204;SDS011;592;48.764;9.174;2023-05-10T15:33:55;5.10;;;1.40;;
1204;SDS011;592;48.764;9.174;2023-05-10T15:36:23;5.70;;;1.50;;
1204;SDS011;592;48.764;9.174;2023-05-10T15:38:52;4.47;;;1.60;;
1204;SDS011;592;48.764;9.174;2023-05-10T15:41:20;3.90;;;1.43;;
1204;SDS011;592;48.764;9.174;2023-05-10T15:43:49;3.23;;;1.30;;
1204;SDS011;592;48.764;9.174;2023-05-10T15:46:16;2.93;;;1.13;;
1204;SDS011;592;48.764;9.174;2023-05-10T15:48:44;5.10;;;1.80;;
1204;SDS011;592;48.764;9.174;2023-05-10T15:51:12;3.10;;;1.33;;
1204;SDS011;592;48.764;9.174;2023-05-10T15:53:40;7.50;;;1.60;;